sensor_id;sensor_type;location;lat;lon;timestamp;pressure;altitude;pressure_sealevel;temperature;humidity
54329;BME280;40710;51.120;13.136;2022-11-20T00:00:49;99095.59;;;-0.83;62.66
54329;BME280;40710;51.120;13.136;2022-11-20T00:03:14;99084.06;;;-1.32;62.79
54329;BME280;40710;51.120;13.136;2022-11-20T00:05:39;99078.03;;;-0.55;61.61
54329;BME280;40710;51.120;13.136;2022-11-20T00:08:03;99078.03;;;-0.53;61.37
54329;BME280;40710;51.120;13.136;2022-11-20T00:10:28;99080.88;;;-0.75;60.78
54329;BME280;40710;51.120;13.136;2022-11-20T00:12:52;99086.63;;;-1.29;63.29
54329;BME280;40710;51.120;13.136;2022-11-20T00:15:17;99072.34;;;-0.80;62.27
54329;BME280;40710;51.120;13.136;2022-11-20T00:17:42;99076.53;;;-1.54;63.51
54329;BME280;40710;51.120;13.136;2022-11-20T00:20:07;99080.47;;;-1.16;62.60
54329;BME280;40710;51.120;13.136;2022-11-20T00:22:32;99071.28;;;-0.64;61.16
54329;BME280;40710;51.120;13.136;2022-11-20T00:24:56;99080.28;;;-0.99;62.30
54329;BME280;40710;51.120;13.136;2022-11-20T00:27:22;99075.91;;;-0.92;61.36
54329;BME280;40710;51.120;13.136;2022-11-20T00:29:46;99077.81;;;-1.09;62.43
54329;BME280;40710;51.120;13.136;2022-11-20T00:32:11;99085.69;;;-1.25;63.07
54329;BME280;40710;51.120;13.136;2022-11-20T00:34:35;99087.84;;;-0.83;61.60
54329;BME280;40710;51.120;13.136;2022-11-20T00:37:00;99079.97;;;-0.72;60.62
54329;BME280;40710;51.120;13.136;2022-11-20T00:39:25;99074.94;;;-0.80;59.72
54329;BME280;40710;51.120;13.136;2022-11-20T00:41:49;99089.66;;;-0.91;60.62
54329;BME280;40710;51.120;13.136;2022-11-20T00:44:14;99082.34;;;-0.54;59.44
54329;BME280;40710;51.120;13.136;2022-11-20T00:46:39;99083.06;;;-0.44;59.58
54329;BME280;40710;51.120;13.136;2022-11-20T00:49:03;99078.97;;;-0.58;60.19
54329;BME280;40710;51.120;13.136;2022-11-20T00:51:28;99092.09;;;-0.78;60.82
54329;BME280;40710;51.120;13.136;2022-11-20T00:53:55;99087.53;;;-0.57;59.67
54329;BME280;40710;51.120;13.136;2022-11-20T00:56:20;99096.72;;;-1.07;60.98
54329;BME280;40710;51.120;13.136;2022-11-20T00:58:46;99090.00;;;-1.25;61.75
54329;BME280;40710;51.120;13.136;2022-11-20T01:01:15;99096.84;;;-1.21;60.92
54329;BME280;40710;51.120;13.136;2022-11-20T01:03:42;99093.88;;;-0.84;60.01
54329;BME280;40710;51.120;13.136;2022-11-20T01:06:10;99083.19;;;-0.53;59.94
54329;BME280;40710;51.120;13.136;2022-11-20T01:08:36;99084.25;;;-0.68;59.45
54329;BME280;40710;51.120;13.136;2022-11-20T01:11:03;99096.81;;;-1.18;60.92
54329;BME280;40710;51.120;13.136;2022-11-20T01:13:30;99101.56;;;-1.66;61.44
54329;BME280;40710;51.120;13.136;2022-11-20T01:18:31;99083.88;;;-1.12;61.24
54329;BME280;40710;51.120;13.136;2022-11-20T01:21:03;99093.84;;;-1.73;61.12
54329;BME280;40710;51.120;13.136;2022-11-20T01:23:36;99090.22;;;-1.48;62.29
54329;BME280;40710;51.120;13.136;2022-11-20T01:26:03;99092.84;;;-1.53;62.24
54329;BME280;40710;51.120;13.136;2022-11-20T01:28:28;99092.94;;;-1.62;61.91
54329;BME280;40710;51.120;13.136;2022-11-20T01:30:53;99094.50;;;-1.46;62.24
54329;BME280;40710;51.120;13.136;2022-11-20T01:33:17;99094.69;;;-1.71;62.40
54329;BME280;40710;51.120;13.136;2022-11-20T01:35:42;99098.97;;;-1.66;61.90
54329;BME280;40710;51.120;13.136;2022-11-20T01:38:06;99098.28;;;-1.92;62.85
54329;BME280;40710;51.120;13.136;2022-11-20T01:40:31;99094.44;;;-1.37;61.61
54329;BME280;40710;51.120;13.136;2022-11-20T01:43:12;99088.59;;;-1.60;61.42
54329;BME280;40710;51.120;13.136;2022-11-20T01:46:15;99089.50;;;-1.61;61.60
54329;BME280;40710;51.120;13.136;2022-11-20T01:51:24;99088.19;;;-2.21;63.06
54329;BME280;40710;51.120;13.136;2022-11-20T01:53:54;99087.03;;;-1.75;62.62
54329;BME280;40710;51.120;13.136;2022-11-20T01:56:21;99079.09;;;-1.52;61.16
54329;BME280;40710;51.120;13.136;2022-11-20T01:58:55;99064.81;;;-1.02;59.92
54329;BME280;40710;51.120;13.136;2022-11-20T02:01:21;99066.09;;;-1.40;61.13
54329;BME280;40710;51.120;13.136;2022-11-20T02:03:47;99076.09;;;-2.06;62.40
54329;BME280;40710;51.120;13.136;2022-11-20T02:06:23;99071.25;;;-1.40;61.86
54329;BME280;40710;51.120;13.136;2022-11-20T02:08:48;99064.00;;;-1.04;60.40
54329;BME280;40710;51.120;13.136;2022-11-20T02:11:13;99071.38;;;-1.55;60.93
54329;BME280;40710;51.120;13.136;2022-11-20T02:13:38;99058.53;;;-1.60;61.24
54329;BME280;40710;51.120;13.136;2022-11-20T02:16:23;99055.72;;;-1.35;61.34
54329;BME280;40710;51.120;13.136;2022-11-20T02:18:49;99047.97;;;-1.34;60.27
54329;BME280;40710;51.120;13.136;2022-11-20T02:26:35;99055.97;;;-1.60;60.36
54329;BME280;40710;51.120;13.136;2022-11-20T02:29:03;99053.44;;;-1.66;61.13
54329;BME280;40710;51.120;13.136;2022-11-20T02:31:28;99058.09;;;-2.16;62.25
54329;BME280;40710;51.120;13.136;2022-11-20T02:33:56;99058.06;;;-2.06;62.73
54329;BME280;40710;51.120;13.136;2022-11-20T02:36:21;99056.34;;;-2.09;62.13
54329;BME280;40710;51.120;13.136;2022-11-20T02:38:46;99056.41;;;-2.12;62.67
54329;BME280;40710;51.120;13.136;2022-11-20T02:41:10;99043.72;;;-1.36;60.00
54329;BME280;40710;51.120;13.136;2022-11-20T02:43:35;99050.91;;;-1.71;60.37
54329;BME280;40710;51.120;13.136;2022-11-20T02:46:00;99051.50;;;-1.44;60.55
54329;BME280;40710;51.120;13.136;2022-11-20T02:48:24;99038.41;;;-1.19;59.12
54329;BME280;40710;51.120;13.136;2022-11-20T02:50:49;99034.28;;;-1.37;59.61
54329;BME280;40710;51.120;13.136;2022-11-20T02:53:13;99049.41;;;-1.96;62.17
54329;BME280;40710;51.120;13.136;2022-11-20T02:55:38;99036.44;;;-1.87;60.66
54329;BME280;40710;51.120;13.136;2022-11-20T02:58:02;99044.66;;;-1.45;60.37
54329;BME280;40710;51.120;13.136;2022-11-20T03:00:27;99040.34;;;-1.41;59.80
54329;BME280;40710;51.120;13.136;2022-11-20T03:02:52;99045.88;;;-1.86;61.05
54329;BME280;40710;51.120;13.136;2022-11-20T03:05:16;99053.03;;;-2.28;61.19
54329;BME280;40710;51.120;13.136;2022-11-20T03:07:41;99064.28;;;-2.41;61.80
54329;BME280;40710;51.120;13.136;2022-11-20T03:10:07;99061.38;;;-1.92;61.07
54329;BME280;40710;51.120;13.136;2022-11-20T03:12:32;99052.84;;;-1.97;61.55
54329;BME280;40710;51.120;13.136;2022-11-20T03:14:56;99053.75;;;-2.06;60.81
54329;BME280;40710;51.120;13.136;2022-11-20T03:17:21;99046.75;;;-1.87;60.08
54329;BME280;40710;51.120;13.136;2022-11-20T03:19:46;99043.16;;;-1.66;59.36
54329;BME280;40710;51.120;13.136;2022-11-20T03:22:10;99044.00;;;-1.65;59.84
54329;BME280;40710;51.120;13.136;2022-11-20T03:24:35;99036.72;;;-1.25;58.56
54329;BME280;40710;51.120;13.136;2022-11-20T03:27:00;99033.44;;;-1.41;58.56
54329;BME280;40710;51.120;13.136;2022-11-20T03:29:24;99042.06;;;-1.40;59.02
54329;BME280;40710;51.120;13.136;2022-11-20T03:31:49;99037.97;;;-1.61;59.51
54329;BME280;40710;51.120;13.136;2022-11-20T03:34:13;99039.50;;;-1.42;58.94
54329;BME280;40710;51.120;13.136;2022-11-20T03:36:42;99042.63;;;-2.08;59.83
54329;BME280;40710;51.120;13.136;2022-11-20T03:39:07;99040.03;;;-2.06;60.40
54329;BME280;40710;51.120;13.136;2022-11-20T03:41:37;99032.47;;;-1.27;58.86
54329;BME280;40710;51.120;13.136;2022-11-20T03:44:04;99020.59;;;-1.44;58.68
54329;BME280;40710;51.120;13.136;2022-11-20T03:46:29;99015.13;;;-1.13;57.97
54329;BME280;40710;51.120;13.136;2022-11-20T03:48:55;99020.38;;;-1.21;58.38
54329;BME280;40710;51.120;13.136;2022-11-20T03:53:48;99012.81;;;-1.38;57.99
54329;BME280;40710;51.120;13.136;2022-11-20T03:56:15;99008.25;;;-1.14;58.11
54329;BME280;40710;51.120;13.136;2022-11-20T03:58:40;99009.41;;;-1.40;57.58
54329;BME280;40710;51.120;13.136;2022-11-20T04:01:08;99009.63;;;-1.61;58.23
54329;BME280;40710;51.120;13.136;2022-11-20T04:03:35;98999.00;;;-1.34;58.21
54329;BME280;40710;51.120;13.136;2022-11-20T04:06:09;99005.28;;;-1.58;58.68
54329;BME280;40710;51.120;13.136;2022-11-20T04:08:35;98995.75;;;-1.51;58.33
54329;BME280;40710;51.120;13.136;2022-11-20T04:11:16;98998.25;;;-1.42;57.88
54329;BME280;40710;51.120;13.136;2022-11-20T04:13:42;99001.84;;;-1.60;57.92
54329;BME280;40710;51.120;13.136;2022-11-20T04:16:08;98999.19;;;-1.49;58.11
54329;BME280;40710;51.120;13.136;2022-11-20T04:18:34;98996.63;;;-1.49;57.73
54329;BME280;40710;51.120;13.136;2022-11-20T04:20:59;98991.53;;;-1.58;58.65
54329;BME280;40710;51.120;13.136;2022-11-20T04:23:25;98989.66;;;-1.44;57.88
54329;BME280;40710;51.120;13.136;2022-11-20T04:25:49;98999.59;;;-1.92;58.88
54329;BME280;40710;51.120;13.136;2022-11-20T04:28:14;98989.03;;;-1.66;58.35
54329;BME280;40710;51.120;13.136;2022-11-20T04:30:38;98995.19;;;-1.81;58.63
54329;BME280;40710;51.120;13.136;2022-11-20T04:33:03;99008.25;;;-2.01;59.36
54329;BME280;40710;51.120;13.136;2022-11-20T04:35:27;99014.09;;;-1.83;58.84
54329;BME280;40710;51.120;13.136;2022-11-20T04:37:52;99003.94;;;-2.02;59.17
54329;BME280;40710;51.120;13.136;2022-11-20T04:40:16;98999.47;;;-1.80;58.38
54329;BME280;40710;51.120;13.136;2022-11-20T04:42:41;99010.09;;;-2.20;59.90
54329;BME280;40710;51.120;13.136;2022-11-20T04:45:06;99008.13;;;-1.85;59.08
54329;BME280;40710;51.120;13.136;2022-11-20T04:47:30;98998.97;;;-2.25;59.22
54329;BME280;40710;51.120;13.136;2022-11-20T04:49:55;98997.72;;;-1.75;59.18
54329;BME280;40710;51.120;13.136;2022-11-20T04:52:19;98996.09;;;-1.88;58.65
54329;BME280;40710;51.120;13.136;2022-11-20T04:54:44;99000.94;;;-2.61;61.30
54329;BME280;40710;51.120;13.136;2022-11-20T04:57:08;99007.59;;;-2.28;60.66
54329;BME280;40710;51.120;13.136;2022-11-20T04:59:33;99000.81;;;-2.44;59.62
54329;BME280;40710;51.120;13.136;2022-11-20T05:01:58;99014.38;;;-2.19;61.70
54329;BME280;40710;51.120;13.136;2022-11-20T05:04:22;99010.84;;;-2.07;60.46
54329;BME280;40710;51.120;13.136;2022-11-20T05:06:47;99007.31;;;-1.95;60.27
54329;BME280;40710;51.120;13.136;2022-11-20T05:09:12;99003.09;;;-2.01;59.73
54329;BME280;40710;51.120;13.136;2022-11-20T05:11:37;98998.31;;;-1.51;59.01
54329;BME280;40710;51.120;13.136;2022-11-20T05:14:01;98991.66;;;-1.72;59.20
54329;BME280;40710;51.120;13.136;2022-11-20T05:16:26;98996.16;;;-1.93;59.13
54329;BME280;40710;51.120;13.136;2022-11-20T05:18:52;98989.53;;;-2.24;59.68
54329;BME280;40710;51.120;13.136;2022-11-20T05:21:18;98999.25;;;-2.68;60.31
54329;BME280;40710;51.120;13.136;2022-11-20T05:23:44;98993.69;;;-2.05;59.62
54329;BME280;40710;51.120;13.136;2022-11-20T05:26:20;98993.63;;;-2.02;58.51
54329;BME280;40710;51.120;13.136;2022-11-20T05:28:46;98995.66;;;-2.44;60.18
54329;BME280;40710;51.120;13.136;2022-11-20T05:31:17;98988.44;;;-1.91;58.75
54329;BME280;40710;51.120;13.136;2022-11-20T05:33:43;98981.56;;;-1.92;58.54
54329;BME280;40710;51.120;13.136;2022-11-20T05:36:09;98987.75;;;-2.15;58.30
54329;BME280;40710;51.120;13.136;2022-11-20T05:38:34;98990.59;;;-2.55;59.70
54329;BME280;40710;51.120;13.136;2022-11-20T05:41:06;98980.09;;;-2.21;58.43
54329;BME280;40710;51.120;13.136;2022-11-20T05:43:32;98978.44;;;-2.31;58.81
54329;BME280;40710;51.120;13.136;2022-11-20T05:45:58;98993.16;;;-2.53;58.50
54329;BME280;40710;51.120;13.136;2022-11-20T05:48:22;98982.94;;;-2.59;59.78
54329;BME280;40710;51.120;13.136;2022-11-20T05:50:48;98978.53;;;-2.47;59.70
54329;BME280;40710;51.120;13.136;2022-11-20T05:53:13;98970.09;;;-2.69;59.48
54329;BME280;40710;51.120;13.136;2022-11-20T05:55:37;98971.81;;;-2.71;59.77
54329;BME280;40710;51.120;13.136;2022-11-20T05:58:02;98965.50;;;-2.23;59.23
54329;BME280;40710;51.120;13.136;2022-11-20T06:00:26;98964.84;;;-2.52;59.61
54329;BME280;40710;51.120;13.136;2022-11-20T06:02:51;98958.41;;;-1.95;58.33
54329;BME280;40710;51.120;13.136;2022-11-20T06:05:16;98960.06;;;-1.90;58.24
54329;BME280;40710;51.120;13.136;2022-11-20T06:07:40;98948.00;;;-1.84;57.39
54329;BME280;40710;51.120;13.136;2022-11-20T06:10:05;98947.41;;;-2.13;58.21
54329;BME280;40710;51.120;13.136;2022-11-20T06:12:31;98950.16;;;-2.37;58.69
54329;BME280;40710;51.120;13.136;2022-11-20T06:14:57;98948.13;;;-1.98;57.21
54329;BME280;40710;51.120;13.136;2022-11-20T06:17:21;98947.16;;;-1.88;57.34
54329;BME280;40710;51.120;13.136;2022-11-20T06:19:46;98947.97;;;-1.83;56.77
54329;BME280;40710;51.120;13.136;2022-11-20T06:22:10;98948.16;;;-2.01;57.86
54329;BME280;40710;51.120;13.136;2022-11-20T06:24:35;98957.78;;;-2.25;58.81
54329;BME280;40710;51.120;13.136;2022-11-20T06:26:59;98957.59;;;-2.03;58.70
54329;BME280;40710;51.120;13.136;2022-11-20T06:29:24;98952.00;;;-2.55;58.96
54329;BME280;40710;51.120;13.136;2022-11-20T06:31:48;98960.97;;;-1.94;58.60
54329;BME280;40710;51.120;13.136;2022-11-20T06:34:13;98952.59;;;-2.19;58.04
54329;BME280;40710;51.120;13.136;2022-11-20T06:36:38;98961.44;;;-2.54;59.09
54329;BME280;40710;51.120;13.136;2022-11-20T06:39:03;98964.19;;;-2.85;59.89
54329;BME280;40710;51.120;13.136;2022-11-20T06:41:28;98959.44;;;-2.16;58.82
54329;BME280;40710;51.120;13.136;2022-11-20T06:43:52;98960.38;;;-2.28;58.29
54329;BME280;40710;51.120;13.136;2022-11-20T06:46:18;98952.59;;;-2.19;58.03
54329;BME280;40710;51.120;13.136;2022-11-20T06:48:43;98954.19;;;-2.05;57.64
54329;BME280;40710;51.120;13.136;2022-11-20T06:51:09;98957.94;;;-2.43;58.89
54329;BME280;40710;51.120;13.136;2022-11-20T06:53:34;98966.41;;;-2.28;59.05
54329;BME280;40710;51.120;13.136;2022-11-20T06:55:59;98963.84;;;-2.32;59.40
54329;BME280;40710;51.120;13.136;2022-11-20T06:58:27;98961.28;;;-2.35;59.30
54329;BME280;40710;51.120;13.136;2022-11-20T07:00:52;98962.19;;;-2.36;58.83
54329;BME280;40710;51.120;13.136;2022-11-20T07:03:16;98956.75;;;-2.01;58.62
54329;BME280;40710;51.120;13.136;2022-11-20T07:05:41;98956.63;;;-1.88;58.08
54329;BME280;40710;51.120;13.136;2022-11-20T07:08:05;98956.63;;;-1.88;57.62
54329;BME280;40710;51.120;13.136;2022-11-20T07:10:30;98951.22;;;-1.61;56.68
54329;BME280;40710;51.120;13.136;2022-11-20T07:12:55;98943.44;;;-1.58;56.78
54329;BME280;40710;51.120;13.136;2022-11-20T07:15:22;98955.19;;;-2.17;58.26
54329;BME280;40710;51.120;13.136;2022-11-20T07:17:47;98946.28;;;-1.84;57.53
54329;BME280;40710;51.120;13.136;2022-11-20T07:20:12;98944.22;;;-1.53;57.39
54329;BME280;40710;51.120;13.136;2022-11-20T07:22:37;98941.69;;;-1.56;57.47
54329;BME280;40710;51.120;13.136;2022-11-20T07:25:03;98939.50;;;-1.15;56.12
54329;BME280;40710;51.120;13.136;2022-11-20T07:27:28;98931.25;;;-1.42;56.16
54329;BME280;40710;51.120;13.136;2022-11-20T07:29:53;98928.75;;;-1.51;55.98
54329;BME280;40710;51.120;13.136;2022-11-20T07:32:17;98938.59;;;-1.90;57.86
54329;BME280;40710;51.120;13.136;2022-11-20T07:34:42;98933.88;;;-1.48;56.91
54329;BME280;40710;51.120;13.136;2022-11-20T07:37:07;98931.94;;;-2.10;58.79
54329;BME280;40710;51.120;13.136;2022-11-20T07:39:31;98939.06;;;-1.53;59.50
54329;BME280;40710;51.120;13.136;2022-11-20T07:41:56;98938.88;;;-1.36;57.74
54329;BME280;40710;51.120;13.136;2022-11-20T07:44:20;98927.72;;;-0.15;54.37
54329;BME280;40710;51.120;13.136;2022-11-20T07:46:45;98919.13;;;0.33;53.26
54329;BME280;40710;51.120;13.136;2022-11-20T07:49:09;98917.31;;;-0.10;52.80
54329;BME280;40710;51.120;13.136;2022-11-20T07:51:34;98905.88;;;0.92;51.58
54329;BME280;40710;51.120;13.136;2022-11-20T07:53:58;98903.31;;;0.90;51.78
54329;BME280;40710;51.120;13.136;2022-11-20T07:56:23;98902.81;;;0.74;51.66
54329;BME280;40710;51.120;13.136;2022-11-20T07:58:48;98904.06;;;0.97;51.94
54329;BME280;40710;51.120;13.136;2022-11-20T08:01:12;98895.66;;;1.62;50.42
54329;BME280;40710;51.120;13.136;2022-11-20T08:03:37;98899.13;;;1.25;50.64
54329;BME280;40710;51.120;13.136;2022-11-20T08:06:01;98891.38;;;1.96;49.38
54329;BME280;40710;51.120;13.136;2022-11-20T08:08:27;98887.94;;;1.95;49.47
54329;BME280;40710;51.120;13.136;2022-11-20T08:10:51;98889.81;;;2.23;49.24
54329;BME280;40710;51.120;13.136;2022-11-20T08:13:16;98882.91;;;3.13;47.63
54329;BME280;40710;51.120;13.136;2022-11-20T08:15:59;98875.56;;;3.26;47.10
54329;BME280;40710;51.120;13.136;2022-11-20T08:18:24;98879.56;;;3.64;46.38
54329;BME280;40710;51.120;13.136;2022-11-20T08:20:48;98879.50;;;3.66;45.93
54329;BME280;40710;51.120;13.136;2022-11-20T08:23:13;98869.31;;;3.86;45.55
54329;BME280;40710;51.120;13.136;2022-11-20T08:25:38;98867.22;;;3.96;45.25
54329;BME280;40710;51.120;13.136;2022-11-20T08:28:05;98857.78;;;4.44;44.72
54329;BME280;40710;51.120;13.136;2022-11-20T08:30:31;98853.56;;;4.40;44.15
54329;BME280;40710;51.120;13.136;2022-11-20T08:33:01;98858.13;;;4.58;44.73
54329;BME280;40710;51.120;13.136;2022-11-20T08:35:27;98848.94;;;4.71;44.25
54329;BME280;40710;51.120;13.136;2022-11-20T08:37:51;98846.63;;;4.87;43.85
54329;BME280;40710;51.120;13.136;2022-11-20T08:40:16;98847.69;;;4.82;44.26
54329;BME280;40710;51.120;13.136;2022-11-20T08:42:51;98844.19;;;5.05;44.99
54329;BME280;40710;51.120;13.136;2022-11-20T08:45:17;98834.44;;;5.54;43.63
54329;BME280;40710;51.120;13.136;2022-11-20T08:47:42;98834.06;;;5.41;43.51
54329;BME280;40710;51.120;13.136;2022-11-20T08:50:11;98829.16;;;5.76;43.17
54329;BME280;40710;51.120;13.136;2022-11-20T08:52:36;98823.78;;;6.41;41.79
54329;BME280;40710;51.120;13.136;2022-11-20T08:55:01;98828.59;;;6.69;41.52
54329;BME280;40710;51.120;13.136;2022-11-20T08:57:25;98826.97;;;6.48;42.04
54329;BME280;40710;51.120;13.136;2022-11-20T08:59:50;98828.13;;;6.01;42.68
54329;BME280;40710;51.120;13.136;2022-11-20T09:02:14;98821.09;;;7.36;41.10
54329;BME280;40710;51.120;13.136;2022-11-20T09:04:39;98812.75;;;7.64;40.45
54329;BME280;40710;51.120;13.136;2022-11-20T09:07:04;98818.31;;;7.22;40.46
54329;BME280;40710;51.120;13.136;2022-11-20T09:09:28;98818.69;;;7.50;40.74
54329;BME280;40710;51.120;13.136;2022-11-20T09:11:53;98804.00;;;7.65;40.23
54329;BME280;40710;51.120;13.136;2022-11-20T09:14:18;98810.66;;;8.06;40.76
54329;BME280;40710;51.120;13.136;2022-11-20T09:16:44;98812.28;;;8.08;40.38
54329;BME280;40710;51.120;13.136;2022-11-20T09:19:09;98806.88;;;8.45;40.27
54329;BME280;40710;51.120;13.136;2022-11-20T09:21:34;98814.78;;;8.61;39.98
54329;BME280;40710;51.120;13.136;2022-11-20T09:23:58;98804.81;;;8.83;39.92
54329;BME280;40710;51.120;13.136;2022-11-20T09:26:23;98803.22;;;8.81;39.41
54329;BME280;40710;51.120;13.136;2022-11-20T09:28:47;98806.75;;;8.64;39.89
54329;BME280;40710;51.120;13.136;2022-11-20T09:31:22;98804.53;;;9.20;39.54
54329;BME280;40710;51.120;13.136;2022-11-20T09:33:47;98809.66;;;8.91;40.23
54329;BME280;40710;51.120;13.136;2022-11-20T09:36:12;98795.31;;;9.89;38.64
54329;BME280;40710;51.120;13.136;2022-11-20T09:38:36;98780.38;;;10.90;36.87
54329;BME280;40710;51.120;13.136;2022-11-20T09:41:06;98794.59;;;10.01;38.65
54329;BME280;40710;51.120;13.136;2022-11-20T09:43:51;98787.94;;;10.53;36.85
54329;BME280;40710;51.120;13.136;2022-11-20T09:46:40;98803.81;;;8.70;39.26
54329;BME280;40710;51.120;13.136;2022-11-20T09:52:09;98782.09;;;9.91;37.49
54329;BME280;40710;51.120;13.136;2022-11-20T09:54:40;98778.78;;;10.32;36.73
54329;BME280;40710;51.120;13.136;2022-11-20T09:57:12;98775.94;;;10.20;36.60
54329;BME280;40710;51.120;13.136;2022-11-20T09:59:45;98775.38;;;11.00;36.04
54329;BME280;40710;51.120;13.136;2022-11-20T10:02:26;98773.78;;;11.25;35.31
54329;BME280;40710;51.120;13.136;2022-11-20T10:05:06;98782.97;;;11.32;36.80
54329;BME280;40710;51.120;13.136;2022-11-20T10:10:41;98783.31;;;11.13;35.28
54329;BME280;40710;51.120;13.136;2022-11-20T10:24:24;98768.41;;;9.86;36.11
54329;BME280;40710;51.120;13.136;2022-11-20T10:27:10;98761.84;;;11.46;34.42
54329;BME280;40710;51.120;13.136;2022-11-20T10:29:39;98782.19;;;9.28;36.09
54329;BME280;40710;51.120;13.136;2022-11-20T10:32:19;98767.69;;;10.55;35.21
54329;BME280;40710;51.120;13.136;2022-11-20T10:34:58;98772.16;;;11.09;34.30
54329;BME280;40710;51.120;13.136;2022-11-20T10:37:27;98774.31;;;10.18;35.44
54329;BME280;40710;51.120;13.136;2022-11-20T10:45:22;98776.63;;;10.38;36.35
54329;BME280;40710;51.120;13.136;2022-11-20T10:48:10;98776.09;;;10.60;35.66
54329;BME280;40710;51.120;13.136;2022-11-20T10:50:39;98766.25;;;10.78;35.75
54329;BME280;40710;51.120;13.136;2022-11-20T10:53:24;98773.34;;;10.35;36.53
54329;BME280;40710;51.120;13.136;2022-11-20T10:56:04;98762.84;;;10.35;36.39
54329;BME280;40710;51.120;13.136;2022-11-20T10:58:51;98771.94;;;10.44;35.94
54329;BME280;40710;51.120;13.136;2022-11-20T11:01:20;98766.19;;;10.37;36.22
54329;BME280;40710;51.120;13.136;2022-11-20T11:03:48;98765.69;;;10.30;36.08
54329;BME280;40710;51.120;13.136;2022-11-20T11:08:53;98753.78;;;10.95;36.00
54329;BME280;40710;51.120;13.136;2022-11-20T11:11:39;98755.50;;;10.96;35.86
54329;BME280;40710;51.120;13.136;2022-11-20T11:14:09;98749.97;;;11.53;34.68
54329;BME280;40710;51.120;13.136;2022-11-20T11:16:34;98752.06;;;11.08;35.53
54329;BME280;40710;51.120;13.136;2022-11-20T11:19:14;98739.19;;;11.31;34.23
54329;BME280;40710;51.120;13.136;2022-11-20T11:21:55;98738.97;;;10.94;34.31
54329;BME280;40710;51.120;13.136;2022-11-20T11:24:23;98724.81;;;11.49;34.08
54329;BME280;40710;51.120;13.136;2022-11-20T11:26:57;98746.78;;;9.52;36.59
54329;BME280;40710;51.120;13.136;2022-11-20T11:29:23;98729.44;;;11.06;35.18
54329;BME280;40710;51.120;13.136;2022-11-20T11:31:50;98716.81;;;11.64;34.74
54329;BME280;40710;51.120;13.136;2022-11-20T11:34:17;98711.66;;;11.62;34.35
54329;BME280;40710;51.120;13.136;2022-11-20T11:36:54;98699.56;;;11.72;34.69
54329;BME280;40710;51.120;13.136;2022-11-20T11:39:21;98713.03;;;10.75;35.51
54329;BME280;40710;51.120;13.136;2022-11-20T11:41:46;98718.44;;;10.59;37.48
54329;BME280;40710;51.120;13.136;2022-11-20T11:44:21;98715.97;;;10.27;37.08
54329;BME280;40710;51.120;13.136;2022-11-20T11:52:42;98707.63;;;11.31;37.29
54329;BME280;40710;51.120;13.136;2022-11-20T11:55:23;98718.44;;;10.16;39.51
54329;BME280;40710;51.120;13.136;2022-11-20T11:57:56;98711.91;;;9.94;39.59
54329;BME280;40710;51.120;13.136;2022-11-20T12:00:23;98720.56;;;9.21;40.66
54329;BME280;40710;51.120;13.136;2022-11-20T12:03:00;98723.47;;;9.01;41.10
54329;BME280;40710;51.120;13.136;2022-11-20T12:05:38;98729.72;;;8.52;42.00
54329;BME280;40710;51.120;13.136;2022-11-20T12:13:54;98733.91;;;7.02;45.94
54329;BME280;40710;51.120;13.136;2022-11-20T12:16:20;98730.59;;;8.35;44.21
54329;BME280;40710;51.120;13.136;2022-11-20T12:18:49;98719.72;;;7.93;43.69
54329;BME280;40710;51.120;13.136;2022-11-20T12:21:50;98715.75;;;8.02;43.90
54329;BME280;40710;51.120;13.136;2022-11-20T12:34:51;98752.06;;;6.50;47.77
54329;BME280;40710;51.120;13.136;2022-11-20T12:37:26;98748.06;;;5.21;51.58
54329;BME280;40710;51.120;13.136;2022-11-20T12:40:00;98761.28;;;4.94;51.48
54329;BME280;40710;51.120;13.136;2022-11-20T12:42:39;98762.09;;;4.50;51.69
54329;BME280;40710;51.120;13.136;2022-11-20T12:45:51;98763.72;;;3.82;52.81
54329;BME280;40710;51.120;13.136;2022-11-20T12:48:50;98756.13;;;4.92;52.05
54329;BME280;40710;51.120;13.136;2022-11-20T12:54:31;98733.06;;;6.65;47.73
54329;BME280;40710;51.120;13.136;2022-11-20T13:07:42;98730.41;;;5.89;48.57
54329;BME280;40710;51.120;13.136;2022-11-20T13:10:33;98733.59;;;5.34;49.53
54329;BME280;40710;51.120;13.136;2022-11-20T13:13:10;98751.97;;;4.88;50.61
54329;BME280;40710;51.120;13.136;2022-11-20T13:18:36;98731.31;;;5.67;50.14
54329;BME280;40710;51.120;13.136;2022-11-20T13:21:16;98731.72;;;6.18;48.76
54329;BME280;40710;51.120;13.136;2022-11-20T13:23:42;98730.03;;;5.78;49.92
54329;BME280;40710;51.120;13.136;2022-11-20T13:26:22;98731.13;;;5.72;49.72
54329;BME280;40710;51.120;13.136;2022-11-20T13:29:00;98728.16;;;5.40;50.57
54329;BME280;40710;51.120;13.136;2022-11-20T13:31:34;98715.38;;;5.75;48.92
54329;BME280;40710;51.120;13.136;2022-11-20T13:34:03;98709.44;;;6.68;47.50
54329;BME280;40710;51.120;13.136;2022-11-20T13:36:30;98706.94;;;6.84;48.42
54329;BME280;40710;51.120;13.136;2022-11-20T13:38:56;98700.47;;;6.91;47.71
54329;BME280;40710;51.120;13.136;2022-11-20T13:41:28;98725.09;;;6.11;48.52
54329;BME280;40710;51.120;13.136;2022-11-20T13:44:14;98720.16;;;6.05;49.01
54329;BME280;40710;51.120;13.136;2022-11-20T13:46:45;98716.44;;;6.49;48.32
54329;BME280;40710;51.120;13.136;2022-11-20T13:49:18;98717.22;;;6.32;47.97
54329;BME280;40710;51.120;13.136;2022-11-20T13:51:49;98706.44;;;6.76;47.15
54329;BME280;40710;51.120;13.136;2022-11-20T13:54:43;98707.28;;;6.40;47.97
54329;BME280;40710;51.120;13.136;2022-11-20T13:57:37;98695.16;;;7.96;45.38
54329;BME280;40710;51.120;13.136;2022-11-20T14:00:13;98692.34;;;7.32;45.18
54329;BME280;40710;51.120;13.136;2022-11-20T14:02:40;98696.66;;;7.33;45.88
54329;BME280;40710;51.120;13.136;2022-11-20T14:05:05;98707.00;;;6.82;46.92
54329;BME280;40710;51.120;13.136;2022-11-20T14:07:42;98716.06;;;6.37;48.06
54329;BME280;40710;51.120;13.136;2022-11-20T14:10:22;98700.03;;;7.00;46.49
54329;BME280;40710;51.120;13.136;2022-11-20T14:12:47;98699.19;;;7.00;46.87
54329;BME280;40710;51.120;13.136;2022-11-20T14:15:44;98708.72;;;6.65;47.56